PWSweather.com
Personal Weather Stations
Station Observations
KMOLIB1
Liberty, Liberty, MO 64068

LibertyLiberty, MO 64068

Lat: 39.24, Lon: -94.45

Elevation: 866

Station Type:

Latest ConditionsUpdated 12:45:01 PM CST Sunday, Jan 26, 2020
Currently Today's Max Today's Min Today's Average
Temperature 34.0°F1.1°C 34.0°F1.1°C 24.0°F-4.4°C 28.3°F-2.1°C
Dew Point 15.9°F-8.9°C 15.9°F-8.9°C 6.7°F-14.1°C 10.5°F-11.9°C
Winds 6.0 mph SW9.7 kmh SW 9.0 mph -14.5 kmh - - 1.1 mph 1.8 kmh
Wind Gusts 9.0 mph14.5 kmh 9.0 mph14.5 kmh - -
Humidity 47% 48% 46% 47%
Pressure 210.46 in7127.0 mb 210.51 in7128.7 mb 210.45 in7126.7 mb -
Hour Temp Dew Point Humidity Winds Wind Gusts Pressure Precip Precip Rate Daily Precip Total
12:45 PM 34.0°F1.1°C 15.9°F-8.9°C 47% 6.0 mph SW9.7 kmh SW 9.0 mph14.5 kmh 210.46 in7127.0 mb 0.03 in0.8 mm 0.00 in0.0 mm 0.03 in0.8 mm
12:40 PM 34.0°F1.1°C 15.9°F-8.9°C 47% 7.0 mph WNW11.3 kmh WNW 9.0 mph14.5 kmh 210.46 in7127.0 mb 0.03 in0.8 mm 0.00 in0.0 mm 0.03 in0.8 mm
12:35 PM 34.0°F1.1°C 15.9°F-8.9°C 47% 1.0 mph N1.6 kmh N 9.0 mph14.5 kmh 210.46 in7127.0 mb 0.03 in0.8 mm 0.00 in0.0 mm 0.03 in0.8 mm
12:30 PM 34.0°F1.1°C 15.9°F-8.9°C 47% 9.0 mph WNW14.5 kmh WNW 9.0 mph14.5 kmh 210.46 in7127.0 mb 0.03 in0.8 mm 0.00 in0.0 mm 0.03 in0.8 mm
12:25 PM 34.0°F1.1°C 15.9°F-8.9°C 47% 3.0 mph W4.8 kmh W 9.0 mph14.5 kmh 210.47 in7127.3 mb 0.03 in0.8 mm 0.24 in6.1 mm 0.03 in0.8 mm
12:20 PM 33.0°F0.6°C 15.0°F-9.4°C 47% 2.0 mph NW3.2 kmh NW 9.0 mph14.5 kmh 210.47 in7127.3 mb 0.01 in0.3 mm 0.00 in0.0 mm 0.01 in0.3 mm
12:15 PM 33.0°F0.6°C 15.0°F-9.4°C 47% 4.0 mph WNW6.4 kmh WNW 9.0 mph14.5 kmh 210.47 in7127.3 mb 0.01 in0.3 mm 0.00 in0.0 mm 0.01 in0.3 mm
12:10 PM 33.0°F0.6°C 14.5°F-9.7°C 46% 5.0 mph W8.0 kmh W 9.0 mph14.5 kmh 210.47 in7127.3 mb 0.01 in0.3 mm 0.00 in0.0 mm 0.01 in0.3 mm
12:05 PM 33.0°F0.6°C 15.0°F-9.4°C 47% 2.0 mph WSW3.2 kmh WSW 9.0 mph14.5 kmh 210.47 in7127.3 mb 0.01 in0.3 mm 0.00 in0.0 mm 0.01 in0.3 mm
12:00 PM 33.0°F0.6°C 15.0°F-9.4°C 47% 1.0 mph S1.6 kmh S 9.0 mph14.5 kmh 210.47 in7127.3 mb 0.01 in0.3 mm 0.00 in0.0 mm 0.01 in0.3 mm
11:55 AM 33.0°F0.6°C 15.0°F-9.4°C 47% 2.0 mph N3.2 kmh N 9.0 mph14.5 kmh 210.47 in7127.3 mb 0.01 in0.3 mm 0.00 in0.0 mm 0.01 in0.3 mm
11:50 AM 33.0°F0.6°C 15.0°F-9.4°C 47% 6.0 mph WNW9.7 kmh WNW 9.0 mph14.5 kmh 210.47 in7127.3 mb 0.01 in0.3 mm 0.00 in0.0 mm 0.01 in0.3 mm
11:45 AM 32.0°F0.0°C 14.0°F-10.0°C 47% 2.0 mph N3.2 kmh N 9.0 mph14.5 kmh 210.48 in7127.7 mb 0.01 in0.3 mm 0.00 in0.0 mm 0.01 in0.3 mm
11:40 AM 33.0°F0.6°C 15.0°F-9.4°C 47% 4.0 mph NW6.4 kmh NW 7.0 mph11.3 kmh 210.48 in7127.7 mb 0.01 in0.3 mm 0.00 in0.0 mm 0.01 in0.3 mm
11:35 AM 33.0°F0.6°C 15.0°F-9.4°C 47% 1.0 mph NNW1.6 kmh NNW 7.0 mph11.3 kmh 210.48 in7127.7 mb 0.01 in0.3 mm 0.00 in0.0 mm 0.01 in0.3 mm
11:30 AM 33.0°F0.6°C 15.0°F-9.4°C 47% 6.0 mph NW9.7 kmh NW 7.0 mph11.3 kmh 210.48 in7127.7 mb 0.01 in0.3 mm 0.00 in0.0 mm 0.01 in0.3 mm
11:25 AM 33.0°F0.6°C 15.0°F-9.4°C 47% 4.0 mph W6.4 kmh W 7.0 mph11.3 kmh 210.48 in7127.7 mb 0.01 in0.3 mm 0.00 in0.0 mm 0.01 in0.3 mm
11:20 AM 34.0°F1.1°C 15.9°F-8.9°C 47% 1.0 mph W1.6 kmh W 7.0 mph11.3 kmh 210.48 in7127.7 mb 0.01 in0.3 mm 0.00 in0.0 mm 0.01 in0.3 mm
11:15 AM 34.0°F1.1°C 15.9°F-8.9°C 47% Calm Calm 7.0 mph11.3 kmh 210.47 in7127.3 mb 0.01 in0.3 mm 0.00 in0.0 mm 0.01 in0.3 mm
11:10 AM 34.0°F1.1°C 15.9°F-8.9°C 47% Calm Calm 7.0 mph11.3 kmh 210.47 in7127.3 mb 0.01 in0.3 mm 0.00 in0.0 mm 0.01 in0.3 mm
11:05 AM 33.0°F0.6°C 15.0°F-9.4°C 47% Calm Calm 7.0 mph11.3 kmh 210.47 in7127.3 mb 0.01 in0.3 mm 0.00 in0.0 mm 0.01 in0.3 mm
11:00 AM 33.0°F0.6°C 15.0°F-9.4°C 47% 1.0 mph SSW1.6 kmh SSW 7.0 mph11.3 kmh 210.47 in7127.3 mb 0.01 in0.3 mm 0.00 in0.0 mm 0.01 in0.3 mm
10:55 AM 33.0°F0.6°C 15.0°F-9.4°C 47% 1.0 mph S1.6 kmh S 7.0 mph11.3 kmh 210.49 in7128.0 mb 0.01 in0.3 mm 0.00 in0.0 mm 0.01 in0.3 mm
10:50 AM 32.0°F0.0°C 14.0°F-10.0°C 47% Calm Calm 7.0 mph11.3 kmh 210.49 in7128.0 mb 0.01 in0.3 mm 0.00 in0.0 mm 0.01 in0.3 mm
10:45 AM 32.0°F0.0°C 14.0°F-10.0°C 47% 1.0 mph SSE1.6 kmh SSE 7.0 mph11.3 kmh 210.49 in7128.0 mb 0.01 in0.3 mm 0.00 in0.0 mm 0.01 in0.3 mm
10:40 AM 31.0°F-0.6°C 13.1°F-10.5°C 47% Calm Calm 7.0 mph11.3 kmh 210.49 in7128.0 mb 0.01 in0.3 mm 0.00 in0.0 mm 0.01 in0.3 mm
10:35 AM 31.0°F-0.6°C 13.1°F-10.5°C 47% Calm Calm 7.0 mph11.3 kmh 210.49 in7128.0 mb 0.01 in0.3 mm 0.12 in3.0 mm 0.01 in0.3 mm
10:30 AM 31.0°F-0.6°C 13.1°F-10.5°C 47% 2.0 mph SSW3.2 kmh SSW 7.0 mph11.3 kmh 210.49 in7128.0 mb 0.00 in0.0 mm 0.00 in0.0 mm 0.00 in0.0 mm
10:25 AM 31.0°F-0.6°C 13.1°F-10.5°C 47% 3.0 mph SSE4.8 kmh SSE 7.0 mph11.3 kmh 210.49 in7128.0 mb 0.00 in0.0 mm 0.00 in0.0 mm 0.00 in0.0 mm
10:20 AM 30.0°F-1.1°C 12.2°F-11.0°C 47% Calm Calm 7.0 mph11.3 kmh 210.49 in7128.0 mb 0.00 in0.0 mm 0.00 in0.0 mm 0.00 in0.0 mm
10:15 AM 30.0°F-1.1°C 12.2°F-11.0°C 47% 1.0 mph NNW1.6 kmh NNW 7.0 mph11.3 kmh 210.49 in7128.0 mb 0.00 in0.0 mm 0.00 in0.0 mm 0.00 in0.0 mm
10:10 AM 30.0°F-1.1°C 12.2°F-11.0°C 47% Calm Calm 7.0 mph11.3 kmh 210.49 in7128.0 mb 0.00 in0.0 mm 0.00 in0.0 mm 0.00 in0.0 mm
10:05 AM 29.0°F-1.7°C 11.3°F-11.5°C 47% 2.0 mph S3.2 kmh S 7.0 mph11.3 kmh 210.49 in7128.0 mb 0.00 in0.0 mm 0.00 in0.0 mm 0.00 in0.0 mm
10:00 AM 29.0°F-1.7°C 11.3°F-11.5°C 47% 1.0 mph SSE1.6 kmh SSE 7.0 mph11.3 kmh 210.49 in7128.0 mb 0.00 in0.0 mm 0.00 in0.0 mm 0.00 in0.0 mm
09:55 AM 29.0°F-1.7°C 11.3°F-11.5°C 47% 1.0 mph S1.6 kmh S 7.0 mph11.3 kmh 210.49 in7128.0 mb 0.00 in0.0 mm 0.00 in0.0 mm 0.00 in0.0 mm
09:50 AM 29.0°F-1.7°C 11.3°F-11.5°C 47% 2.0 mph S3.2 kmh S 7.0 mph11.3 kmh 210.49 in7128.0 mb 0.00 in0.0 mm 0.00 in0.0 mm 0.00 in0.0 mm
09:45 AM 29.0°F-1.7°C 11.3°F-11.5°C 47% Calm Calm 7.0 mph11.3 kmh 210.49 in7128.0 mb 0.00 in0.0 mm 0.00 in0.0 mm 0.00 in0.0 mm
09:40 AM 29.0°F-1.7°C 11.8°F-11.2°C 48% 2.0 mph S3.2 kmh S 7.0 mph11.3 kmh 210.49 in7128.0 mb 0.00 in0.0 mm 0.00 in0.0 mm 0.00 in0.0 mm
09:35 AM 29.0°F-1.7°C 11.3°F-11.5°C 47% 2.0 mph SSE3.2 kmh SSE 7.0 mph11.3 kmh 210.48 in7127.7 mb 0.00 in0.0 mm 0.00 in0.0 mm 0.00 in0.0 mm
09:30 AM 29.0°F-1.7°C 11.3°F-11.5°C 47% 1.0 mph ESE1.6 kmh ESE 7.0 mph11.3 kmh 210.48 in7127.7 mb 0.00 in0.0 mm 0.00 in0.0 mm 0.00 in0.0 mm
09:25 AM 29.0°F-1.7°C 11.3°F-11.5°C 47% Calm Calm 7.0 mph11.3 kmh 210.47 in7127.3 mb 0.00 in0.0 mm 0.00 in0.0 mm 0.00 in0.0 mm
09:20 AM 29.0°F-1.7°C 11.3°F-11.5°C 47% Calm Calm 7.0 mph11.3 kmh 210.47 in7127.3 mb 0.00 in0.0 mm 0.00 in0.0 mm 0.00 in0.0 mm
09:15 AM 28.0°F-2.2°C 10.4°F-12.0°C 47% Calm Calm 7.0 mph11.3 kmh 210.48 in7127.7 mb 0.00 in0.0 mm 0.00 in0.0 mm 0.00 in0.0 mm
09:10 AM 28.0°F-2.2°C 10.4°F-12.0°C 47% Calm Calm 7.0 mph11.3 kmh 210.48 in7127.7 mb 0.00 in0.0 mm 0.00 in0.0 mm 0.00 in0.0 mm
09:05 AM 28.0°F-2.2°C 10.4°F-12.0°C 47% Calm Calm 7.0 mph11.3 kmh 210.47 in7127.3 mb 0.00 in0.0 mm 0.00 in0.0 mm 0.00 in0.0 mm
09:00 AM 28.0°F-2.2°C 10.4°F-12.0°C 47% Calm Calm 7.0 mph11.3 kmh 210.47 in7127.3 mb 0.00 in0.0 mm 0.00 in0.0 mm 0.00 in0.0 mm
08:55 AM 28.0°F-2.2°C 10.4°F-12.0°C 47% Calm Calm 7.0 mph11.3 kmh 210.48 in7127.7 mb 0.00 in0.0 mm 0.00 in0.0 mm 0.00 in0.0 mm
08:50 AM 27.0°F-2.8°C 9.4°F-12.6°C 47% Calm Calm 7.0 mph11.3 kmh 210.48 in7127.7 mb 0.00 in0.0 mm 0.00 in0.0 mm 0.00 in0.0 mm
08:45 AM 27.0°F-2.8°C 9.4°F-12.6°C 47% 2.0 mph ESE3.2 kmh ESE 7.0 mph11.3 kmh 210.48 in7127.7 mb 0.00 in0.0 mm 0.00 in0.0 mm 0.00 in0.0 mm
08:40 AM 26.0°F-3.3°C 8.5°F-13.1°C 47% Calm Calm 7.0 mph11.3 kmh 210.48 in7127.7 mb 0.00 in0.0 mm 0.00 in0.0 mm 0.00 in0.0 mm
08:35 AM 26.0°F-3.3°C 8.5°F-13.1°C 47% Calm Calm 7.0 mph11.3 kmh 210.48 in7127.7 mb 0.00 in0.0 mm 0.00 in0.0 mm 0.00 in0.0 mm
08:30 AM 26.0°F-3.3°C 8.5°F-13.1°C 47% Calm Calm 7.0 mph11.3 kmh 210.48 in7127.7 mb 0.00 in0.0 mm 0.00 in0.0 mm 0.00 in0.0 mm
08:25 AM 26.0°F-3.3°C 8.5°F-13.1°C 47% Calm Calm 7.0 mph11.3 kmh 210.47 in7127.3 mb 0.00 in0.0 mm 0.00 in0.0 mm 0.00 in0.0 mm
08:20 AM 26.0°F-3.3°C 8.5°F-13.1°C 47% Calm Calm 7.0 mph11.3 kmh 210.47 in7127.3 mb 0.00 in0.0 mm 0.00 in0.0 mm 0.00 in0.0 mm
08:15 AM 26.0°F-3.3°C 8.5°F-13.1°C 47% 2.0 mph ESE3.2 kmh ESE 7.0 mph11.3 kmh 210.47 in7127.3 mb 0.00 in0.0 mm 0.00 in0.0 mm 0.00 in0.0 mm
08:10 AM 26.0°F-3.3°C 8.5°F-13.1°C 47% Calm Calm 7.0 mph11.3 kmh 210.47 in7127.3 mb 0.00 in0.0 mm 0.00 in0.0 mm 0.00 in0.0 mm
08:05 AM 26.0°F-3.3°C 8.5°F-13.1°C 47% 4.0 mph ESE6.4 kmh ESE 7.0 mph11.3 kmh 210.47 in7127.3 mb 0.00 in0.0 mm 0.00 in0.0 mm 0.00 in0.0 mm
08:00 AM 26.0°F-3.3°C 8.5°F-13.1°C 47% Calm Calm 7.0 mph11.3 kmh 210.47 in7127.3 mb 0.00 in0.0 mm 0.00 in0.0 mm 0.00 in0.0 mm
07:55 AM 26.0°F-3.3°C 8.5°F-13.1°C 47% Calm Calm 7.0 mph11.3 kmh 210.47 in7127.3 mb 0.00 in0.0 mm 0.00 in0.0 mm 0.00 in0.0 mm
07:50 AM 26.0°F-3.3°C 8.5°F-13.1°C 47% Calm Calm 7.0 mph11.3 kmh 210.47 in7127.3 mb 0.00 in0.0 mm 0.00 in0.0 mm 0.00 in0.0 mm
07:45 AM 26.0°F-3.3°C 8.5°F-13.1°C 47% Calm Calm 7.0 mph11.3 kmh 210.47 in7127.3 mb 0.00 in0.0 mm 0.00 in0.0 mm 0.00 in0.0 mm
07:40 AM 26.0°F-3.3°C 8.5°F-13.1°C 47% Calm Calm 7.0 mph11.3 kmh 210.47 in7127.3 mb 0.00 in0.0 mm 0.00 in0.0 mm 0.00 in0.0 mm
07:35 AM 26.0°F-3.3°C 8.5°F-13.1°C 47% Calm Calm 7.0 mph11.3 kmh 210.47 in7127.3 mb 0.00 in0.0 mm 0.00 in0.0 mm 0.00 in0.0 mm
07:30 AM 26.0°F-3.3°C 8.5°F-13.1°C 47% Calm Calm 7.0 mph11.3 kmh 210.47 in7127.3 mb 0.00 in0.0 mm 0.00 in0.0 mm 0.00 in0.0 mm
07:25 AM 26.0°F-3.3°C 8.5°F-13.1°C 47% Calm Calm 7.0 mph11.3 kmh 210.47 in7127.3 mb 0.00 in0.0 mm 0.00 in0.0 mm 0.00 in0.0 mm
07:20 AM 26.0°F-3.3°C 8.5°F-13.1°C 47% Calm Calm 7.0 mph11.3 kmh 210.47 in7127.3 mb 0.00 in0.0 mm 0.00 in0.0 mm 0.00 in0.0 mm
07:15 AM 26.0°F-3.3°C 8.5°F-13.1°C 47% Calm Calm 7.0 mph11.3 kmh 210.47 in7127.3 mb 0.00 in0.0 mm 0.00 in0.0 mm 0.00 in0.0 mm
07:10 AM 26.0°F-3.3°C 8.5°F-13.1°C 47% Calm Calm 7.0 mph11.3 kmh 210.47 in7127.3 mb 0.00 in0.0 mm 0.00 in0.0 mm 0.00 in0.0 mm
07:05 AM 26.0°F-3.3°C 8.5°F-13.1°C 47% Calm Calm 7.0 mph11.3 kmh 210.47 in7127.3 mb 0.00 in0.0 mm 0.00 in0.0 mm 0.00 in0.0 mm
07:00 AM 26.0°F-3.3°C 8.5°F-13.1°C 47% Calm Calm 7.0 mph11.3 kmh 210.47 in7127.3 mb 0.00 in0.0 mm 0.00 in0.0 mm 0.00 in0.0 mm
06:55 AM 25.0°F-3.9°C 7.6°F-13.6°C 47% Calm Calm 7.0 mph11.3 kmh 210.48 in7127.7 mb 0.00 in0.0 mm 0.00 in0.0 mm 0.00 in0.0 mm
06:50 AM 25.0°F-3.9°C 7.6°F-13.6°C 47% 2.0 mph ENE3.2 kmh ENE 7.0 mph11.3 kmh 210.48 in7127.7 mb 0.00 in0.0 mm 0.00 in0.0 mm 0.00 in0.0 mm
06:45 AM 25.0°F-3.9°C 7.6°F-13.6°C 47% Calm Calm 7.0 mph11.3 kmh 210.47 in7127.3 mb 0.00 in0.0 mm 0.00 in0.0 mm 0.00 in0.0 mm
06:40 AM 25.0°F-3.9°C 7.6°F-13.6°C 47% Calm Calm 7.0 mph11.3 kmh 210.47 in7127.3 mb 0.00 in0.0 mm 0.00 in0.0 mm 0.00 in0.0 mm
06:35 AM 25.0°F-3.9°C 7.6°F-13.6°C 47% Calm Calm 7.0 mph11.3 kmh 210.47 in7127.3 mb 0.00 in0.0 mm 0.00 in0.0 mm 0.00 in0.0 mm
06:30 AM 25.0°F-3.9°C 7.6°F-13.6°C 47% 1.0 mph ENE1.6 kmh ENE 7.0 mph11.3 kmh 210.47 in7127.3 mb 0.00 in0.0 mm 0.00 in0.0 mm 0.00 in0.0 mm
06:25 AM 25.0°F-3.9°C 7.6°F-13.6°C 47% 3.0 mph ENE4.8 kmh ENE 7.0 mph11.3 kmh 210.47 in7127.3 mb 0.00 in0.0 mm 0.00 in0.0 mm 0.00 in0.0 mm
06:20 AM 25.0°F-3.9°C 7.6°F-13.6°C 47% Calm Calm 7.0 mph11.3 kmh 210.47 in7127.3 mb 0.00 in0.0 mm 0.00 in0.0 mm 0.00 in0.0 mm
06:15 AM 25.0°F-3.9°C 7.6°F-13.6°C 47% Calm Calm 7.0 mph11.3 kmh 210.47 in7127.3 mb 0.00 in0.0 mm 0.00 in0.0 mm 0.00 in0.0 mm
06:10 AM 25.0°F-3.9°C 7.6°F-13.6°C 47% 3.0 mph ENE4.8 kmh ENE 7.0 mph11.3 kmh 210.47 in7127.3 mb 0.00 in0.0 mm 0.00 in0.0 mm 0.00 in0.0 mm
06:05 AM 24.0°F-4.4°C 6.7°F-14.1°C 47% 2.0 mph ENE3.2 kmh ENE 7.0 mph11.3 kmh 210.46 in7127.0 mb 0.00 in0.0 mm 0.00 in0.0 mm 0.00 in0.0 mm
06:00 AM 24.0°F-4.4°C 6.7°F-14.1°C 47% Calm Calm 7.0 mph11.3 kmh 210.46 in7127.0 mb 0.00 in0.0 mm 0.00 in0.0 mm 0.00 in0.0 mm
05:55 AM 24.0°F-4.4°C 6.7°F-14.1°C 47% Calm Calm 7.0 mph11.3 kmh 210.46 in7127.0 mb 0.00 in0.0 mm 0.00 in0.0 mm 0.00 in0.0 mm
05:50 AM 25.0°F-3.9°C 7.6°F-13.6°C 47% Calm Calm 7.0 mph11.3 kmh 210.46 in7127.0 mb 0.00 in0.0 mm 0.00 in0.0 mm 0.00 in0.0 mm
05:45 AM 25.0°F-3.9°C 7.6°F-13.6°C 47% Calm Calm 7.0 mph11.3 kmh 210.47 in7127.3 mb 0.00 in0.0 mm 0.00 in0.0 mm 0.00 in0.0 mm
05:40 AM 25.0°F-3.9°C 7.6°F-13.6°C 47% Calm Calm 7.0 mph11.3 kmh 210.47 in7127.3 mb 0.00 in0.0 mm 0.00 in0.0 mm 0.00 in0.0 mm
05:35 AM 25.0°F-3.9°C 7.6°F-13.6°C 47% Calm Calm 7.0 mph11.3 kmh 210.47 in7127.3 mb 0.00 in0.0 mm 0.00 in0.0 mm 0.00 in0.0 mm
05:30 AM 25.0°F-3.9°C 7.6°F-13.6°C 47% Calm Calm 7.0 mph11.3 kmh 210.47 in7127.3 mb 0.00 in0.0 mm 0.00 in0.0 mm 0.00 in0.0 mm
05:25 AM 25.0°F-3.9°C 7.6°F-13.6°C 47% Calm Calm 7.0 mph11.3 kmh 210.47 in7127.3 mb 0.00 in0.0 mm 0.00 in0.0 mm 0.00 in0.0 mm
05:20 AM 25.0°F-3.9°C 7.6°F-13.6°C 47% Calm Calm 7.0 mph11.3 kmh 210.47 in7127.3 mb 0.00 in0.0 mm 0.00 in0.0 mm 0.00 in0.0 mm
05:15 AM 26.0°F-3.3°C 8.5°F-13.1°C 47% Calm Calm 7.0 mph11.3 kmh 210.47 in7127.3 mb 0.00 in0.0 mm 0.00 in0.0 mm 0.00 in0.0 mm
05:10 AM 26.0°F-3.3°C 8.5°F-13.1°C 47% Calm Calm 7.0 mph11.3 kmh 210.47 in7127.3 mb 0.00 in0.0 mm 0.00 in0.0 mm 0.00 in0.0 mm
05:05 AM 26.0°F-3.3°C 8.5°F-13.1°C 47% Calm Calm 7.0 mph11.3 kmh 210.47 in7127.3 mb 0.00 in0.0 mm 0.00 in0.0 mm 0.00 in0.0 mm
05:00 AM 26.0°F-3.3°C 8.0°F-13.3°C 46% Calm Calm 7.0 mph11.3 kmh 210.47 in7127.3 mb 0.00 in0.0 mm 0.00 in0.0 mm 0.00 in0.0 mm
04:55 AM 26.0°F-3.3°C 8.5°F-13.1°C 47% 1.0 mph NE1.6 kmh NE 7.0 mph11.3 kmh 210.46 in7127.0 mb 0.00 in0.0 mm 0.00 in0.0 mm 0.00 in0.0 mm
04:50 AM 27.0°F-2.8°C 9.4°F-12.6°C 47% 1.0 mph NE1.6 kmh NE 7.0 mph11.3 kmh 210.46 in7127.0 mb 0.00 in0.0 mm 0.00 in0.0 mm 0.00 in0.0 mm
04:45 AM 27.0°F-2.8°C 9.4°F-12.6°C 47% Calm Calm 7.0 mph11.3 kmh 210.46 in7127.0 mb 0.00 in0.0 mm 0.00 in0.0 mm 0.00 in0.0 mm
04:40 AM 27.0°F-2.8°C 9.0°F-12.8°C 46% Calm Calm 7.0 mph11.3 kmh 210.46 in7127.0 mb 0.00 in0.0 mm 0.00 in0.0 mm 0.00 in0.0 mm
04:35 AM 27.0°F-2.8°C 9.4°F-12.6°C 47% Calm Calm 7.0 mph11.3 kmh 210.46 in7127.0 mb 0.00 in0.0 mm 0.00 in0.0 mm 0.00 in0.0 mm
04:30 AM 27.0°F-2.8°C 9.0°F-12.8°C 46% Calm Calm 7.0 mph11.3 kmh 210.46 in7127.0 mb 0.00 in0.0 mm 0.00 in0.0 mm 0.00 in0.0 mm
04:25 AM 27.0°F-2.8°C 9.0°F-12.8°C 46% Calm Calm 7.0 mph11.3 kmh 210.45 in7126.7 mb 0.00 in0.0 mm 0.00 in0.0 mm 0.00 in0.0 mm
04:20 AM 28.0°F-2.2°C 9.9°F-12.3°C 46% Calm Calm 7.0 mph11.3 kmh 210.45 in7126.7 mb 0.00 in0.0 mm 0.00 in0.0 mm 0.00 in0.0 mm
04:15 AM 28.0°F-2.2°C 9.9°F-12.3°C 46% Calm Calm 7.0 mph11.3 kmh 210.46 in7127.0 mb 0.00 in0.0 mm 0.00 in0.0 mm 0.00 in0.0 mm
04:10 AM 28.0°F-2.2°C 10.4°F-12.0°C 47% Calm Calm 7.0 mph11.3 kmh 210.46 in7127.0 mb 0.00 in0.0 mm 0.00 in0.0 mm 0.00 in0.0 mm
04:05 AM 28.0°F-2.2°C 10.4°F-12.0°C 47% 1.0 mph SSE1.6 kmh SSE 7.0 mph11.3 kmh 210.47 in7127.3 mb 0.00 in0.0 mm 0.00 in0.0 mm 0.00 in0.0 mm
04:00 AM 28.0°F-2.2°C 9.9°F-12.3°C 46% Calm Calm 7.0 mph11.3 kmh 210.47 in7127.3 mb 0.00 in0.0 mm 0.00 in0.0 mm 0.00 in0.0 mm
03:55 AM 28.0°F-2.2°C 9.9°F-12.3°C 46% Calm Calm 7.0 mph11.3 kmh 210.47 in7127.3 mb 0.00 in0.0 mm 0.00 in0.0 mm 0.00 in0.0 mm
03:50 AM 28.0°F-2.2°C 9.9°F-12.3°C 46% Calm Calm 7.0 mph11.3 kmh 210.47 in7127.3 mb 0.00 in0.0 mm 0.00 in0.0 mm 0.00 in0.0 mm
03:45 AM 28.0°F-2.2°C 9.9°F-12.3°C 46% Calm Calm 7.0 mph11.3 kmh 210.47 in7127.3 mb 0.00 in0.0 mm 0.00 in0.0 mm 0.00 in0.0 mm
03:40 AM 29.0°F-1.7°C 11.3°F-11.5°C 47% Calm Calm 7.0 mph11.3 kmh 210.47 in7127.3 mb 0.00 in0.0 mm 0.00 in0.0 mm 0.00 in0.0 mm
03:35 AM 28.0°F-2.2°C 10.4°F-12.0°C 47% 1.0 mph WNW1.6 kmh WNW 7.0 mph11.3 kmh 210.47 in7127.3 mb 0.00 in0.0 mm 0.00 in0.0 mm 0.00 in0.0 mm
03:30 AM 28.0°F-2.2°C 10.4°F-12.0°C 47% Calm Calm 7.0 mph11.3 kmh 210.47 in7127.3 mb 0.00 in0.0 mm 0.00 in0.0 mm 0.00 in0.0 mm
03:25 AM 28.0°F-2.2°C 10.4°F-12.0°C 47% Calm Calm 7.0 mph11.3 kmh 210.47 in7127.3 mb 0.00 in0.0 mm 0.00 in0.0 mm 0.00 in0.0 mm
03:20 AM 28.0°F-2.2°C 10.4°F-12.0°C 47% Calm Calm 7.0 mph11.3 kmh 210.47 in7127.3 mb 0.00 in0.0 mm 0.00 in0.0 mm 0.00 in0.0 mm
03:15 AM 28.0°F-2.2°C 9.9°F-12.3°C 46% Calm Calm 7.0 mph11.3 kmh 210.47 in7127.3 mb 0.00 in0.0 mm 0.00 in0.0 mm 0.00 in0.0 mm
03:10 AM 28.0°F-2.2°C 9.9°F-12.3°C 46% Calm Calm 7.0 mph11.3 kmh 210.47 in7127.3 mb 0.00 in0.0 mm 0.00 in0.0 mm 0.00 in0.0 mm
03:05 AM 28.0°F-2.2°C 9.9°F-12.3°C 46% Calm Calm 7.0 mph11.3 kmh 210.47 in7127.3 mb 0.00 in0.0 mm 0.00 in0.0 mm 0.00 in0.0 mm
03:00 AM 28.0°F-2.2°C 9.9°F-12.3°C 46% Calm Calm 7.0 mph11.3 kmh 210.47 in7127.3 mb 0.00 in0.0 mm 0.00 in0.0 mm 0.00 in0.0 mm
02:55 AM 28.0°F-2.2°C 9.9°F-12.3°C 46% Calm Calm 7.0 mph11.3 kmh 210.47 in7127.3 mb 0.00 in0.0 mm 0.00 in0.0 mm 0.00 in0.0 mm
02:50 AM 28.0°F-2.2°C 9.9°F-12.3°C 46% Calm Calm 7.0 mph11.3 kmh 210.47 in7127.3 mb 0.00 in0.0 mm 0.00 in0.0 mm 0.00 in0.0 mm
02:45 AM 28.0°F-2.2°C 9.9°F-12.3°C 46% Calm Calm 7.0 mph11.3 kmh 210.47 in7127.3 mb 0.00 in0.0 mm 0.00 in0.0 mm 0.00 in0.0 mm
02:40 AM 28.0°F-2.2°C 9.9°F-12.3°C 46% 2.0 mph SSE3.2 kmh SSE 7.0 mph11.3 kmh 210.47 in7127.3 mb 0.00 in0.0 mm 0.00 in0.0 mm 0.00 in0.0 mm
02:35 AM 28.0°F-2.2°C 9.9°F-12.3°C 46% Calm Calm 7.0 mph11.3 kmh 210.47 in7127.3 mb 0.00 in0.0 mm 0.00 in0.0 mm 0.00 in0.0 mm
02:30 AM 28.0°F-2.2°C 9.9°F-12.3°C 46% Calm Calm 7.0 mph11.3 kmh 210.47 in7127.3 mb 0.00 in0.0 mm 0.00 in0.0 mm 0.00 in0.0 mm
02:25 AM 28.0°F-2.2°C 9.9°F-12.3°C 46% Calm Calm 7.0 mph11.3 kmh 210.47 in7127.3 mb 0.00 in0.0 mm 0.00 in0.0 mm 0.00 in0.0 mm
02:20 AM 28.0°F-2.2°C 9.9°F-12.3°C 46% Calm Calm 7.0 mph11.3 kmh 210.47 in7127.3 mb 0.00 in0.0 mm 0.00 in0.0 mm 0.00 in0.0 mm
02:15 AM 28.0°F-2.2°C 9.9°F-12.3°C 46% Calm Calm 7.0 mph11.3 kmh 210.48 in7127.7 mb 0.00 in0.0 mm 0.00 in0.0 mm 0.00 in0.0 mm
02:10 AM 28.0°F-2.2°C 9.9°F-12.3°C 46% Calm Calm 7.0 mph11.3 kmh 210.48 in7127.7 mb 0.00 in0.0 mm 0.00 in0.0 mm 0.00 in0.0 mm
02:05 AM 28.0°F-2.2°C 9.9°F-12.3°C 46% Calm Calm 7.0 mph11.3 kmh 210.48 in7127.7 mb 0.00 in0.0 mm 0.00 in0.0 mm 0.00 in0.0 mm
02:00 AM 28.0°F-2.2°C 9.9°F-12.3°C 46% Calm Calm 7.0 mph11.3 kmh 210.48 in7127.7 mb 0.00 in0.0 mm 0.00 in0.0 mm 0.00 in0.0 mm
01:55 AM 28.0°F-2.2°C 9.9°F-12.3°C 46% 1.0 mph N1.6 kmh N 7.0 mph11.3 kmh 210.49 in7128.0 mb 0.00 in0.0 mm 0.00 in0.0 mm 0.00 in0.0 mm
01:50 AM 28.0°F-2.2°C 9.9°F-12.3°C 46% 3.0 mph NNW4.8 kmh NNW 7.0 mph11.3 kmh 210.49 in7128.0 mb 0.00 in0.0 mm 0.00 in0.0 mm 0.00 in0.0 mm
01:45 AM 28.0°F-2.2°C 9.9°F-12.3°C 46% 5.0 mph N8.0 kmh N 7.0 mph11.3 kmh 210.49 in7128.0 mb 0.00 in0.0 mm 0.00 in0.0 mm 0.00 in0.0 mm
01:40 AM 28.0°F-2.2°C 9.9°F-12.3°C 46% 2.0 mph NNW3.2 kmh NNW 7.0 mph11.3 kmh 210.49 in7128.0 mb 0.00 in0.0 mm 0.00 in0.0 mm 0.00 in0.0 mm
01:35 AM 28.0°F-2.2°C 9.9°F-12.3°C 46% 5.0 mph NNW8.0 kmh NNW 7.0 mph11.3 kmh 210.49 in7128.0 mb 0.00 in0.0 mm 0.00 in0.0 mm 0.00 in0.0 mm
01:30 AM 28.0°F-2.2°C 9.9°F-12.3°C 46% 4.0 mph NNW6.4 kmh NNW 7.0 mph11.3 kmh 210.49 in7128.0 mb 0.00 in0.0 mm 0.00 in0.0 mm 0.00 in0.0 mm
01:25 AM 28.0°F-2.2°C 9.9°F-12.3°C 46% 5.0 mph NNW8.0 kmh NNW 7.0 mph11.3 kmh 210.50 in7128.4 mb 0.00 in0.0 mm 0.00 in0.0 mm 0.00 in0.0 mm
01:20 AM 28.0°F-2.2°C 9.9°F-12.3°C 46% 5.0 mph NW8.0 kmh NW 7.0 mph11.3 kmh 210.50 in7128.4 mb 0.00 in0.0 mm 0.00 in0.0 mm 0.00 in0.0 mm
01:15 AM 28.0°F-2.2°C 9.9°F-12.3°C 46% 2.0 mph NW3.2 kmh NW 7.0 mph11.3 kmh 210.49 in7128.0 mb 0.00 in0.0 mm 0.00 in0.0 mm 0.00 in0.0 mm
01:10 AM 29.0°F-1.7°C 10.8°F-11.8°C 46% 3.0 mph NNW4.8 kmh NNW 7.0 mph11.3 kmh 210.49 in7128.0 mb 0.00 in0.0 mm 0.00 in0.0 mm 0.00 in0.0 mm
01:05 AM 29.0°F-1.7°C 10.8°F-11.8°C 46% 5.0 mph N8.0 kmh N 7.0 mph11.3 kmh 210.49 in7128.0 mb 0.00 in0.0 mm 0.00 in0.0 mm 0.00 in0.0 mm
01:00 AM 29.0°F-1.7°C 10.8°F-11.8°C 46% 2.0 mph NW3.2 kmh NW 6.0 mph9.7 kmh 210.49 in7128.0 mb 0.00 in0.0 mm 0.00 in0.0 mm 0.00 in0.0 mm
12:55 AM 29.0°F-1.7°C 10.8°F-11.8°C 46% 4.0 mph NNW6.4 kmh NNW 6.0 mph9.7 kmh 210.49 in7128.0 mb 0.00 in0.0 mm 0.00 in0.0 mm 0.00 in0.0 mm
12:50 AM 29.0°F-1.7°C 10.8°F-11.8°C 46% 2.0 mph NNW3.2 kmh NNW 6.0 mph9.7 kmh 210.49 in7128.0 mb 0.00 in0.0 mm 0.00 in0.0 mm 0.00 in0.0 mm
12:45 AM 29.0°F-1.7°C 10.8°F-11.8°C 46% Calm Calm 6.0 mph9.7 kmh 210.49 in7128.0 mb 0.00 in0.0 mm 0.00 in0.0 mm 0.00 in0.0 mm
12:40 AM 29.0°F-1.7°C 11.3°F-11.5°C 47% 2.0 mph NW3.2 kmh NW 6.0 mph9.7 kmh 210.49 in7128.0 mb 0.00 in0.0 mm 0.00 in0.0 mm 0.00 in0.0 mm
12:35 AM 28.0°F-2.2°C 9.9°F-12.3°C 46% 3.0 mph NW4.8 kmh NW 6.0 mph9.7 kmh 210.51 in7128.7 mb 0.00 in0.0 mm 0.00 in0.0 mm 0.00 in0.0 mm
12:30 AM 28.0°F-2.2°C 9.9°F-12.3°C 46% Calm Calm 6.0 mph9.7 kmh 210.51 in7128.7 mb 0.00 in0.0 mm 0.00 in0.0 mm 0.00 in0.0 mm
12:25 AM 28.0°F-2.2°C 9.9°F-12.3°C 46% Calm Calm 6.0 mph9.7 kmh 210.51 in7128.7 mb 0.00 in0.0 mm 0.00 in0.0 mm 0.00 in0.0 mm
12:20 AM 28.0°F-2.2°C 9.9°F-12.3°C 46% 3.0 mph NW4.8 kmh NW 6.0 mph9.7 kmh 210.51 in7128.7 mb 0.00 in0.0 mm 0.00 in0.0 mm 0.00 in0.0 mm
12:15 AM 28.0°F-2.2°C 10.4°F-12.0°C 47% Calm Calm 5.0 mph8.0 kmh 210.49 in7128.0 mb 0.00 in0.0 mm 0.00 in0.0 mm 0.00 in0.0 mm
12:10 AM 28.0°F-2.2°C 10.4°F-12.0°C 47% 2.0 mph SSW3.2 kmh SSW 4.0 mph6.4 kmh 210.49 in7128.0 mb 0.00 in0.0 mm 0.00 in0.0 mm 0.00 in0.0 mm
12:05 AM 28.0°F-2.2°C 9.9°F-12.3°C 46% 4.0 mph S6.4 kmh S 4.0 mph6.4 kmh 210.49 in7128.0 mb 0.00 in0.0 mm 0.00 in0.0 mm 0.00 in0.0 mm
12:00 AM 28.0°F-2.2°C 9.9°F-12.3°C 46% 3.0 mph S4.8 kmh S 3.0 mph4.8 kmh 210.49 in7128.0 mb 0.00 in0.0 mm 0.00 in0.0 mm 0.00 in0.0 mm